Time;durP1;ratioP1;P1;durP2;ratioP2;P2;SDS_P1;SDS_P2;PMS_P1;PMS_P2;Temp;Humidity;BMP_temperature;BMP_pressure;BME280_temperature;BME280_humidity;BME280_pressure;Samples;Min_cycle;Max_cycle;Signal;HPM_P1;HPM_P2
2022/03/03 00:58:48;;;;;;;13.30;10.40;;;;;;;17.73;42.04;97687.19;5400920;22;20258;-88
2022/03/03 01:01:15;;;;;;;13.03;10.60;;;;;;;17.83;41.83;97702.94;5009968;28;20714;-88
2022/03/03 01:03:42;;;;;;;11.63;10.43;;;;;;;16.97;42.11;97558.25;4994926;28;20221;-87
2022/03/03 01:06:09;;;;;;;11.77;10.50;;;;;;;17.47;41.85;97660.56;5018326;28;20672;-86
2022/03/03 01:08:36;;;;;;;12.03;10.73;;;;;;;17.89;42.18;97733.72;5006388;28;20568;-86
2022/03/03 01:11:04;;;;;;;11.30;10.10;;;;;;;17.63;41.62;97675.75;4994355;28;20633;-87
2022/03/03 01:13:30;;;;;;;12.27;10.50;;;;;;;17.86;42.10;97713.25;4990248;28;20317;-88
2022/03/03 01:15:57;;;;;;;11.53;10.30;;;;;;;17.75;42.15;97704.28;5006355;28;20289;-87
2022/03/03 01:18:23;;;;;;;11.40;9.60;;;;;;;17.51;41.59;97652.31;4981963;28;20271;-87
2022/03/03 01:20:50;;;;;;;12.53;10.73;;;;;;;17.79;42.18;97683.25;5007679;28;20672;-87
2022/03/03 01:23:17;;;;;;;11.87;10.20;;;;;;;17.73;42.29;97679.56;4986564;28;20245;-89
2022/03/03 01:25:44;;;;;;;11.67;10.47;;;;;;;17.46;42.00;97646.13;5017504;28;20202;-87
2022/03/03 01:28:10;;;;;;;11.33;10.13;;;;;;;17.71;42.04;97663.38;4990444;28;20292;-86
2022/03/03 01:30:37;;;;;;;11.00;9.80;;;;;;;17.91;42.01;97700.75;5009769;28;20197;-87
2022/03/03 01:33:05;;;;;;;11.83;10.00;;;;;;;17.82;42.00;97690.16;4990346;28;20219;-87
2022/03/03 01:35:31;;;;;;;10.70;9.60;;;;;;;17.42;42.32;97628.09;4993121;28;20742;-88
2022/03/03 01:37:58;;;;;;;10.87;9.73;;;;;;;17.95;41.83;97728.91;5010104;28;20213;-87
2022/03/03 01:40:25;;;;;;;11.23;10.13;;;;;;;17.41;42.10;97621.28;5025693;28;20623;-85
2022/03/03 01:42:52;;;;;;;12.10;10.30;;;;;;;17.50;41.67;97632.75;4993314;28;20240;-87
2022/03/03 01:45:19;;;;;;;12.17;10.57;;;;;;;17.64;41.77;97658.81;4994849;28;20736;-87
2022/03/03 01:47:45;;;;;;;13.10;10.33;;;;;;;17.55;41.63;97633.84;4990032;28;20518;-93
2022/03/03 02:14:23;;;;;;;11.30;10.10;;;;;;;17.67;41.99;97666.56;5097179;22;20256;-87
2022/03/03 02:16:49;;;;;;;12.60;10.80;;;;;;;17.50;42.26;97635.28;5014787;28;20213;-86
2022/03/03 02:19:20;;;;;;;13.63;10.43;;;;;;;17.60;42.17;97660.34;5032391;28;20224;-88
2022/03/03 02:21:51;;;;;;;13.13;10.77;;;;;;;17.74;42.03;97686.41;5005380;28;20221;-86
2022/03/03 02:24:19;;;;;;;11.90;10.50;;;;;;;17.62;42.52;97656.19;5001058;28;20661;-87
2022/03/03 02:26:47;;;;;;;11.63;10.17;;;;;;;17.01;42.12;97544.88;5024714;28;20211;-86
2022/03/03 02:29:13;;;;;;;11.43;10.30;;;;;;;17.74;42.18;97677.09;5019011;28;20212;-86
2022/03/03 02:31:40;;;;;;;11.10;9.90;;;;;;;17.83;42.02;97681.75;5011262;28;20282;-86
2022/03/03 02:34:07;;;;;;;12.37;11.07;;;;;;;17.60;42.16;97639.13;4998590;28;20477;-86
2022/03/03 02:36:34;;;;;;;11.37;9.87;;;;;;;17.60;41.86;97641.69;5006148;28;20257;-87
2022/03/03 02:39:01;;;;;;;11.63;10.27;;;;;;;17.97;41.69;97709.53;5004141;28;20303;-86
2022/03/03 02:41:28;;;;;;;10.67;9.57;;;;;;;18.03;42.07;97716.59;5029362;28;20220;-86
2022/03/03 02:43:56;;;;;;;12.23;10.27;;;;;;;17.79;41.74;97665.47;5043167;28;20274;-86
2022/03/03 02:46:23;;;;;;;12.17;10.37;;;;;;;17.70;41.72;97642.16;5009264;28;20294;-86
2022/03/03 02:48:50;;;;;;;11.77;10.53;;;;;;;17.43;41.39;97582.47;5010259;28;20502;-88
2022/03/03 02:51:16;;;;;;;12.50;10.77;;;;;;;17.13;41.77;97535.31;5031150;28;21073;-87
2022/03/03 02:53:44;;;;;;;11.13;9.90;;;;;;;17.59;41.47;97619.63;5032474;28;20312;-86
2022/03/03 02:56:10;;;;;;;12.80;9.63;;;;;;;17.82;41.75;97667.28;5010774;28;20279;-87
2022/03/03 02:58:37;;;;;;;12.40;10.93;;;;;;;17.43;41.39;97579.00;5003964;28;20251;-86
2022/03/03 03:01:04;;;;;;;12.20;10.83;;;;;;;17.59;41.99;97606.91;5025139;28;20232;-87
2022/03/03 03:03:31;;;;;;;11.27;10.07;;;;;;;17.73;41.91;97633.81;5029269;28;20217;-86
2022/03/03 03:05:58;;;;;;;12.27;10.30;;;;;;;17.38;41.64;97573.72;5017072;28;20201;-86
2022/03/03 03:08:25;;;;;;;12.10;10.80;;;;;;;17.81;41.50;97651.16;5024845;28;20220;-86
2022/03/03 03:10:51;;;;;;;12.40;10.07;;;;;;;17.75;41.61;97640.72;5007633;28;20524;-86
2022/03/03 03:13:18;;;;;;;12.17;10.17;;;;;;;17.83;41.63;97664.78;5027998;28;20225;-86
2022/03/03 03:15:45;;;;;;;12.27;10.93;;;;;;;17.89;42.06;97682.03;5015360;28;20637;-85
2022/03/03 03:18:13;;;;;;;11.97;10.53;;;;;;;17.28;41.50;97563.94;5010329;28;20233;-87
2022/03/03 03:20:40;;;;;;;11.30;10.20;;;;;;;17.85;41.81;97667.41;5042172;28;20240;-86
2022/03/03 03:23:07;;;;;;;11.50;10.07;;;;;;;17.87;41.74;97674.31;5048132;28;20201;-86
2022/03/03 03:25:34;;;;;;;11.77;10.27;;;;;;;17.80;41.85;97651.94;5014321;28;20250;-86
2022/03/03 03:28:00;;;;;;;12.07;9.80;;;;;;;17.71;41.86;97622.72;5000815;28;20199;-88
2022/03/03 03:30:27;;;;;;;10.60;9.50;;;;;;;17.89;41.88;97667.63;5044603;28;20287;-84
2022/03/03 03:32:54;;;;;;;11.70;9.97;;;;;;;17.87;41.91;97676.00;5008315;28;20658;-86
2022/03/03 03:35:20;;;;;;;11.77;10.47;;;;;;;17.84;41.71;97670.75;5012390;28;20638;-86
2022/03/03 03:37:47;;;;;;;11.40;10.07;;;;;;;17.43;41.86;97600.25;4999492;28;20197;-86
2022/03/03 03:40:14;;;;;;;11.80;10.27;;;;;;;17.03;41.98;97519.56;5025051;28;20251;-86
2022/03/03 03:42:40;;;;;;;10.60;9.50;;;;;;;17.41;41.50;97586.56;5017682;28;20209;-86
2022/03/03 03:45:08;;;;;;;11.70;10.07;;;;;;;17.39;41.82;97579.69;5019567;28;20312;-86
2022/03/03 03:47:34;;;;;;;11.70;9.83;;;;;;;17.81;41.63;97656.25;5013620;28;20248;-86
2022/03/03 04:19:36;;;;;;;11.27;10.07;;;;;;;17.89;42.26;97633.72;5873157;22;20238;-86
2022/03/03 04:22:02;;;;;;;11.30;10.10;;;;;;;17.98;41.54;97657.91;4972782;28;20282;-87
2022/03/03 04:24:32;;;;;;;11.63;10.30;;;;;;;17.89;41.86;97644.75;4981862;28;20766;-86
2022/03/03 04:26:59;;;;;;;11.20;10.00;;;;;;;17.83;41.97;97619.03;4974406;28;20257;-87
2022/03/03 04:29:25;;;;;;;10.60;9.50;;;;;;;17.84;41.38;97610.63;4971814;28;20285;-87
2022/03/03 04:31:53;;;;;;;10.20;9.13;;;;;;;17.50;41.78;97556.53;4990889;28;20317;-87
2022/03/03 04:34:20;;;;;;;11.23;9.73;;;;;;;17.87;42.05;97614.97;4976677;28;20226;-87
2022/03/03 04:36:47;;;;;;;11.23;9.30;;;;;;;18.06;41.84;97646.38;4982849;28;20229;-87
2022/03/03 04:39:14;;;;;;;11.17;9.97;;;;;;;17.93;42.05;97628.84;4971729;28;20269;-88
2022/03/03 04:41:40;;;;;;;11.03;9.77;;;;;;;17.94;41.83;97615.31;4986484;28;20237;-86
2022/03/03 04:44:07;;;;;;;11.73;9.73;;;;;;;17.49;41.98;97531.94;4971980;28;20222;-87
2022/03/03 04:46:34;;;;;;;11.17;9.57;;;;;;;17.99;41.74;97620.59;4978240;28;20298;-86
2022/03/03 04:49:01;;;;;;;11.57;10.37;;;;;;;17.68;41.60;97564.97;4972418;28;20206;-87
2022/03/03 04:51:29;;;;;;;10.60;9.57;;;;;;;18.06;41.46;97622.66;4995462;28;20206;-87
2022/03/03 04:53:56;;;;;;;10.63;9.53;;;;;;;17.48;41.80;97517.50;4989393;28;20309;-87
2022/03/03 04:56:22;;;;;;;10.73;9.33;;;;;;;17.74;41.69;97567.78;4972523;28;20237;-87
2022/03/03 04:58:49;;;;;;;10.97;9.87;;;;;;;17.58;41.58;97539.09;5001584;28;20245;-87
2022/03/03 05:01:16;;;;;;;11.33;9.47;;;;;;;17.88;41.25;97587.09;4974367;28;20199;-87
2022/03/03 05:03:43;;;;;;;9.67;8.67;;;;;;;17.84;41.38;97587.75;5004432;28;20601;-87
2022/03/03 05:06:10;;;;;;;10.27;9.17;;;;;;;17.39;41.32;97501.81;5003962;28;20198;-86
2022/03/03 05:08:36;;;;;;;10.27;9.00;;;;;;;17.83;41.54;97580.06;4974671;28;20202;-87
2022/03/03 05:11:03;;;;;;;10.17;9.07;;;;;;;17.92;41.86;97590.63;4971567;28;20242;-87
2022/03/03 05:13:30;;;;;;;10.70;9.60;;;;;;;17.51;41.56;97524.38;4973444;28;20292;-87
2022/03/03 05:15:57;;;;;;;10.40;9.33;;;;;;;17.89;41.27;97598.13;4975125;28;20296;-87
2022/03/03 05:18:23;;;;;;;10.23;9.17;;;;;;;17.44;41.21;97505.44;4974986;28;20234;-87
2022/03/03 05:20:50;;;;;;;10.73;9.63;;;;;;;17.82;41.77;97565.59;4992702;28;20245;-86
2022/03/03 05:23:22;;;;;;;10.13;9.10;;;;;;;17.64;42.15;97534.28;4978546;28;20268;-87
2022/03/03 05:25:49;;;;;;;10.87;9.73;;;;;;;17.74;41.86;97557.63;4990493;28;20905;-87
2022/03/03 05:28:15;;;;;;;11.23;10.10;;;;;;;17.79;41.55;97571.41;4974257;28;20593;-88
2022/03/03 05:30:42;;;;;;;11.70;10.47;;;;;;;17.74;41.83;97560.16;4989027;28;20277;-88
2022/03/03 05:33:09;;;;;;;11.27;10.07;;;;;;;17.45;42.08;97514.81;4986151;28;20198;-88
2022/03/03 05:35:36;;;;;;;13.03;10.17;;;;;;;17.58;42.07;97537.44;4980391;28;20423;-86
2022/03/03 05:38:03;;;;;;;10.93;9.83;;;;;;;17.91;41.97;97588.88;4993158;28;20289;-86
2022/03/03 05:40:33;;;;;;;10.87;9.67;;;;;;;18.00;41.58;97607.97;4989982;28;20209;-87
2022/03/03 05:43:00;;;;;;;11.20;10.03;;;;;;;18.06;41.93;97604.84;4990879;28;20202;-85
2022/03/03 05:45:26;;;;;;;11.13;9.43;;;;;;;17.79;41.83;97556.16;5011195;28;20237;-87
2022/03/03 05:47:53;;;;;;;12.40;10.17;;;;;;;17.38;41.79;97478.88;4983313;28;20280;-87
2022/03/03 05:50:20;;;;;;;10.07;9.07;;;;;;;17.82;41.69;97556.31;4980182;28;20309;-86
2022/03/03 05:52:47;;;;;;;10.13;9.03;;;;;;;17.91;41.65;97566.00;4977327;28;20242;-86
2022/03/03 05:55:13;;;;;;;11.33;9.57;;;;;;;17.82;41.95;97547.78;4989878;28;20340;-87
2022/03/03 05:57:44;;;;;;;10.80;9.70;;;;;;;17.86;41.61;97558.16;4977236;28;20297;-87
2022/03/03 06:00:14;;;;;;;11.60;10.10;;;;;;;18.05;41.64;97592.91;4977721;28;20644;-87
2022/03/03 06:02:50;;;;;;;13.17;10.93;;;;;;;18.06;41.85;97581.94;4994126;28;20908;-87
2022/03/03 06:05:22;;;;;;;16.40;14.53;;;;;;;17.82;40.97;97535.97;4978967;28;20269;-86
2022/03/03 06:07:51;;;;;;;23.23;18.70;;;;;;;17.92;40.40;97549.97;4977829;28;20230;-87
2022/03/03 06:10:21;;;;;;;31.03;24.27;;;;;;;17.86;38.81;97531.91;4977711;28;20198;-87
2022/03/03 06:12:51;;;;;;;35.93;24.33;;;;;;;17.81;36.46;97519.00;4993778;28;20298;-88
2022/03/03 06:15:18;;;;;;;37.87;23.47;;;;;;;17.44;35.31;97462.25;5009741;28;20313;-88
2022/03/03 06:17:44;;;;;;;28.13;22.00;;;;;;;17.78;33.89;97518.84;4978136;28;20268;-87
2022/03/03 06:20:12;;;;;;;29.00;20.77;;;;;;;17.62;33.44;97513.88;4977585;28;20240;-86
2022/03/03 06:22:40;;;;;;;26.30;19.70;;;;;;;17.32;32.58;97465.91;4994259;28;20202;-87
2022/03/03 06:25:08;;;;;;;27.50;19.30;;;;;;;17.72;32.51;97538.03;4976472;28;20218;-88
2022/03/03 06:27:34;;;;;;;27.53;19.50;;;;;;;17.64;33.83;97519.91;4977067;28;20289;-88
2022/03/03 06:30:01;;;;;;;25.67;18.47;;;;;;;17.62;35.06;97518.97;4977261;28;20241;-87
2022/03/03 06:32:28;;;;;;;24.63;19.20;;;;;;;17.48;35.46;97489.56;4993779;28;20957;-87
2022/03/03 06:34:55;;;;;;;23.87;18.57;;;;;;;17.18;36.37;97460.22;4977266;28;20226;-88
2022/03/03 06:37:21;;;;;;;20.70;17.10;;;;;;;17.66;36.80;97533.56;4979265;28;20245;-88
2022/03/03 06:39:48;;;;;;;22.13;17.63;;;;;;;17.40;36.92;97498.47;4993330;28;20738;-87
2022/03/03 06:42:15;;;;;;;20.50;16.50;;;;;;;17.60;36.95;97548.53;4991516;28;20198;-88
2022/03/03 06:44:41;;;;;;;22.67;18.23;;;;;;;17.25;37.10;97497.78;5001693;28;20247;-86
2022/03/03 06:47:08;;;;;;;26.60;17.77;;;;;;;17.78;37.55;97602.75;4988340;28;20198;-86
2022/03/03 06:49:34;;;;;;;22.60;17.23;;;;;;;17.62;37.36;97572.31;4987310;28;20194;-88
2022/03/03 06:52:02;;;;;;;20.30;16.43;;;;;;;17.58;37.67;97569.56;4980880;28;20735;-86
2022/03/03 06:54:29;;;;;;;25.80;16.83;;;;;;;17.69;37.74;97581.09;4979316;28;20309;-86
2022/03/03 06:56:56;;;;;;;22.03;16.07;;;;;;;17.61;38.26;97573.13;4981569;28;20241;-87
2022/03/03 06:59:27;;;;;;;23.57;16.63;;;;;;;17.53;38.63;97558.38;4996442;28;20226;-86
2022/03/03 07:01:54;;;;;;;20.97;15.90;;;;;;;17.63;38.41;97585.91;4977999;28;20199;-86
2022/03/03 07:04:22;;;;;;;23.67;16.33;;;;;;;17.63;38.69;97571.53;4998041;28;20700;-86
2022/03/03 07:06:49;;;;;;;22.67;16.83;;;;;;;17.77;39.13;97595.03;5000458;28;20231;-86
2022/03/03 07:09:16;;;;;;;18.73;15.77;;;;;;;17.59;39.07;97543.38;4996662;28;20936;-87
2022/03/03 07:11:43;;;;;;;19.60;15.23;;;;;;;17.87;39.52;97594.63;4997471;28;20284;-86
2022/03/03 07:14:10;;;;;;;20.47;15.73;;;;;;;17.62;39.00;97552.00;4997692;28;20306;-87
2022/03/03 07:16:39;;;;;;;17.73;15.10;;;;;;;17.73;39.46;97570.25;4976779;28;20226;-85
2022/03/03 07:19:08;;;;;;;26.97;16.50;;;;;;;17.70;40.69;97567.59;4996246;28;20230;-86
2022/03/03 07:22:01;;;;;;;32.90;16.60;;;;;;;17.91;39.97;97596.50;4976366;28;20698;-86
2022/03/03 07:24:33;;;;;;;22.23;16.60;;;;;;;17.77;40.37;97572.16;5008019;28;20301;-86
2022/03/03 07:27:04;;;;;;;23.07;16.80;;;;;;;17.61;40.08;97547.72;4979349;28;20256;-87
2022/03/03 07:29:33;;;;;;;23.63;16.27;;;;;;;17.69;40.38;97563.31;4978666;28;20249;-86
2022/03/03 07:32:04;;;;;;;24.23;17.33;;;;;;;17.91;39.98;97607.56;4977393;28;20207;-86
2022/03/03 07:34:35;;;;;;;27.93;18.77;;;;;;;17.71;39.98;97564.28;4978242;28;20706;-87
2022/03/03 07:37:11;;;;;;;30.87;20.23;;;;;;;17.75;39.74;97564.47;4993316;28;20260;-86
2022/03/03 07:39:45;;;;;;;29.73;20.13;;;;;;;17.67;39.65;97553.09;4991644;28;20310;-88
2022/03/03 07:42:17;;;;;;;24.50;19.37;;;;;;;17.31;39.88;97484.47;4995261;28;20660;-86
2022/03/03 07:44:47;;;;;;;34.93;20.27;;;;;;;16.80;39.54;97395.81;5000951;23;20608;-83
2022/03/03 07:47:13;;;;;;;26.03;20.27;;;;;;;17.58;39.45;97527.25;5018878;28;20233;-82
2022/03/03 07:49:40;;;;;;;24.60;18.97;;;;;;;15.80;39.52;97218.69;5007090;28;20350;-82
2022/03/03 07:52:07;;;;;;;26.37;18.53;;;;;;;17.92;39.57;97588.09;4996515;28;20213;-81
2022/03/03 07:54:34;;;;;;;25.80;20.03;;;;;;;17.35;39.66;97488.91;5017457;28;20313;-83
2022/03/03 07:57:01;;;;;;;22.67;18.47;;;;;;;13.05;39.96;96739.25;5012909;28;20209;-83
2022/03/03 07:59:32;;;;;;;26.07;21.87;;;;;;;17.96;38.00;97583.22;5001131;28;20289;-80
2022/03/03 08:02:00;;;;;;;24.37;20.23;;;;;;;17.34;36.12;97477.00;5025657;28;20225;-80
2022/03/03 08:04:28;;;;;;;35.27;19.73;;;;;;;17.37;36.88;97490.69;5018868;28;20220;-81
2022/03/03 08:07:07;;;;;;;24.80;17.63;;;;;;;17.95;38.17;97586.53;5000464;28;20209;-80
2022/03/03 08:09:34;;;;;;;23.10;16.67;;;;;;;16.80;37.95;97378.03;5026903;28;20243;-80
2022/03/03 08:12:03;;;;;;;20.30;17.30;;;;;;;17.04;37.12;97417.22;5011756;28;20232;-80
2022/03/03 08:14:30;;;;;;;31.47;17.83;;;;;;;17.28;35.97;97461.47;5026935;28;20256;-81
2022/03/03 08:16:56;;;;;;;23.90;17.87;;;;;;;17.35;36.76;97471.97;4988689;28;20233;-80
2022/03/03 08:19:23;;;;;;;24.87;17.60;;;;;;;16.76;36.94;97369.44;5016280;28;20201;-82
2022/03/03 08:21:50;;;;;;;24.13;17.30;;;;;;;17.18;37.54;97482.19;5010902;28;20233;-83
2022/03/03 08:24:19;;;;;;;23.53;16.60;;;;;;;14.44;37.89;96978.47;5010177;28;20230;-85
2022/03/03 08:26:46;;;;;;;20.93;15.77;;;;;;;15.79;38.05;97208.50;4997710;28;21065;-79
2022/03/03 08:29:13;;;;;;;21.13;16.07;;;;;;;15.30;37.99;97128.44;5016051;28;20281;-81
2022/03/03 08:31:41;;;;;;;21.17;16.27;;;;;;;16.39;38.60;97358.34;5010965;28;20707;-82
2022/03/03 08:34:27;;;;;;;21.73;15.43;;;;;;;17.95;38.71;97585.69;5012364;28;20279;-82
2022/03/03 08:36:56;;;;;;;19.43;15.60;;;;;;;16.08;38.50;97264.78;5026052;28;20229;-81
2022/03/03 08:39:28;;;;;;;21.60;14.73;;;;;;;15.72;38.65;97192.13;5005782;28;20225;-82
2022/03/03 08:41:57;;;;;;;20.67;14.57;;;;;;;17.45;39.25;97489.41;5012960;28;20216;-81
2022/03/03 08:44:43;;;;;;;17.27;14.60;;;;;;;16.73;39.33;97359.16;5013491;28;20263;-81
2022/03/03 08:47:13;;;;;;;18.40;14.63;;;;;;;17.25;39.07;97452.06;5016186;28;21038;-81
2022/03/03 08:49:40;;;;;;;18.70;13.93;;;;;;;16.06;39.02;97258.78;5020562;28;20284;-88
2022/03/03 08:52:07;;;;;;;17.73;13.63;;;;;;;15.31;39.19;97163.13;5013635;28;20221;-88
2022/03/03 08:54:34;;;;;;;17.67;13.80;;;;;;;15.94;39.54;97260.75;4992939;28;20256;-89
2022/03/03 08:57:01;;;;;;;20.40;14.63;;;;;;;15.49;39.11;97138.69;5031616;28;20283;-89
2022/03/03 08:59:27;;;;;;;18.07;13.70;;;;;;;18.01;39.25;97580.88;5002057;28;20249;-88
2022/03/03 09:01:54;;;;;;;18.43;13.47;;;;;;;15.20;39.54;97095.91;5022965;28;20213;-87
2022/03/03 09:04:21;;;;;;;17.80;13.57;;;;;;;15.12;39.52;97075.31;5015358;28;20597;-88
2022/03/03 09:06:47;;;;;;;19.43;12.73;;;;;;;17.18;39.12;97421.25;5005272;28;20247;-87
2022/03/03 09:09:14;;;;;;;15.13;12.00;;;;;;;15.24;39.47;97108.78;4997406;28;20978;-89
2022/03/03 09:11:41;;;;;;;17.77;13.30;;;;;;;15.84;39.62;97187.63;5029102;28;20247;-89
2022/03/03 09:14:07;;;;;;;14.10;12.10;;;;;;;18.02;40.06;97563.13;4992069;28;20291;-83
2022/03/03 09:16:34;;;;;;;15.83;12.60;;;;;;;15.92;40.04;97193.94;5009408;28;20309;-81
2022/03/03 09:19:01;;;;;;;16.80;12.97;;;;;;;15.60;39.67;97143.44;5015424;28;20181;-88
2022/03/03 09:21:28;;;;;;;19.13;13.17;;;;;;;16.15;39.84;97235.53;5017460;28;20221;-88
2022/03/03 09:23:54;;;;;;;16.13;12.73;;;;;;;13.20;40.00;96745.03;5026226;28;20320;-89
2022/03/03 09:26:21;;;;;;;16.00;12.33;;;;;;;17.32;39.30;97432.91;5012889;28;20231;-87
2022/03/03 09:28:48;;;;;;;19.57;14.43;;;;;;;17.42;39.33;97442.66;4999806;28;20233;-87
2022/03/03 09:31:14;;;;;;;21.70;13.00;;;;;;;18.09;39.53;97549.03;5007777;28;20232;-89
2022/03/03 09:33:41;;;;;;;23.90;13.70;;;;;;;15.07;39.38;97060.72;5026379;28;20225;-88
2022/03/03 09:36:08;;;;;;;18.03;13.83;;;;;;;16.29;39.01;97229.41;4996588;28;20253;-87
2022/03/03 09:38:34;;;;;;;18.80;13.57;;;;;;;15.45;39.12;97083.66;5005740;28;20225;-86
2022/03/03 09:41:01;;;;;;;16.43;13.43;;;;;;;15.80;39.60;97139.28;5017802;28;20661;-90
2022/03/03 09:43:28;;;;;;;21.17;14.10;;;;;;;17.04;39.84;97334.31;5025192;28;20232;-89
2022/03/03 09:45:54;;;;;;;34.77;14.60;;;;;;;15.42;40.00;97050.59;5029420;28;20252;-88
2022/03/03 09:48:21;;;;;;;19.63;14.13;;;;;;;17.87;39.93;97528.53;5010214;28;20197;-88
2022/03/03 09:50:48;;;;;;;19.10;13.77;;;;;;;16.01;39.46;97141.13;5019317;28;20209;-89
2022/03/03 09:53:16;;;;;;;19.87;14.63;;;;;;;17.18;39.63;97335.78;4989369;28;20193;-87
2022/03/03 09:55:44;;;;;;;17.87;13.87;;;;;;;18.21;39.77;97512.25;5023128;28;20214;-81
2022/03/03 09:58:11;;;;;;;20.53;14.40;;;;;;;17.21;39.54;97333.38;5012972;28;20197;-80
2022/03/03 10:00:40;;;;;;;18.07;14.10;;;;;;;17.75;39.98;97422.13;5023767;28;20237;-81
2022/03/03 10:03:09;;;;;;;18.50;14.27;;;;;;;17.63;40.14;97405.50;5002077;28;20201;-80
2022/03/03 10:05:50;;;;;;;18.47;14.13;;;;;;;11.52;40.14;96352.03;5015910;28;20329;-81
2022/03/03 10:08:18;;;;;;;23.00;14.47;;;;;;;17.61;39.88;97395.25;5029592;28;20256;-82
2022/03/03 10:10:47;;;;;;;18.73;15.07;;;;;;;17.15;39.50;97312.81;5019637;28;20332;-81
2022/03/03 10:13:17;;;;;;;20.67;13.53;;;;;;;16.72;40.01;97222.06;4987295;28;20637;-80
2022/03/03 10:15:44;;;;;;;20.13;13.50;;;;;;;18.00;39.96;97440.16;5014006;28;20229;-82
2022/03/03 10:18:15;;;;;;;17.63;13.27;;;;;;;16.18;39.81;97114.88;5011688;28;20201;-81
2022/03/03 10:20:49;;;;;;;21.03;13.73;;;;;;;18.31;40.21;97484.66;5012000;28;20229;-83
2022/03/03 10:23:16;;;;;;;22.43;13.63;;;;;;;17.65;40.30;97366.63;5004450;28;20198;-79
2022/03/03 10:25:44;;;;;;;17.27;12.80;;;;;;;16.22;40.03;97124.31;5010810;28;20291;-81
2022/03/03 10:28:12;;;;;;;14.70;12.67;;;;;;;15.21;40.02;96951.72;5006618;28;20718;-81
2022/03/03 10:30:51;;;;;;;17.83;12.53;;;;;;;18.29;40.52;97474.41;5020673;28;20241;-81
2022/03/03 10:33:19;;;;;;;16.73;12.63;;;;;;;17.31;40.62;97314.31;5030512;28;20324;-80
2022/03/03 10:36:08;;;;;;;18.67;12.63;;;;;;;18.29;40.58;97481.19;4992893;28;20316;-82
2022/03/03 10:39:01;;;;;;;16.60;12.03;;;;;;;18.29;40.35;97488.81;5030569;28;20194;-83
2022/03/03 10:41:30;;;;;;;17.57;12.53;;;;;;;18.27;40.74;97483.66;5030495;28;20281;-83
2022/03/03 10:43:57;;;;;;;17.63;13.27;;;;;;;15.87;40.70;97073.75;5015829;28;20884;-83
2022/03/03 10:46:24;;;;;;;17.27;13.50;;;;;;;17.47;40.41;97350.63;5007692;28;20187;-81
2022/03/03 10:48:51;;;;;;;16.87;13.87;;;;;;;17.51;40.53;97352.50;5021227;28;20858;-83
2022/03/03 10:51:19;;;;;;;18.00;13.47;;;;;;;17.17;40.61;97293.41;5015361;28;20226;-81
2022/03/03 10:53:45;;;;;;;21.27;13.33;;;;;;;18.25;41.15;97475.09;4997268;28;20226;-83
2022/03/03 10:56:17;;;;;;;17.70;13.23;;;;;;;18.24;40.77;97470.81;5017929;28;20256;-82
2022/03/03 10:58:54;;;;;;;18.07;13.53;;;;;;;15.80;41.09;97048.09;5014194;28;20194;-82
2022/03/03 11:01:22;;;;;;;17.17;13.33;;;;;;;18.24;41.09;97465.75;4994183;28;20196;-82
2022/03/03 11:03:49;;;;;;;21.53;14.17;;;;;;;17.16;40.90;97300.97;5030741;28;20222;-82
2022/03/03 11:06:21;;;;;;;14.67;12.70;;;;;;;16.82;40.90;97230.13;4998633;28;20222;-83
2022/03/03 11:08:48;;;;;;;16.40;13.63;;;;;;;17.63;40.98;97359.75;5004176;28;20229;-82
2022/03/03 11:11:15;;;;;;;16.17;13.47;;;;;;;16.10;41.14;97095.03;4995823;28;20233;-82
2022/03/03 11:13:43;;;;;;;16.20;12.97;;;;;;;17.43;41.02;97319.91;5025926;28;20217;-82
2022/03/03 11:16:10;;;;;;;18.97;13.67;;;;;;;17.62;41.18;97355.47;4997085;28;20292;-80
2022/03/03 11:18:37;;;;;;;17.13;13.20;;;;;;;18.20;41.12;97454.56;5002555;28;20229;-79
2022/03/03 11:21:03;;;;;;;15.00;12.70;;;;;;;17.59;41.49;97348.59;5019855;28;20255;-78
2022/03/03 11:23:40;;;;;;;17.63;13.87;;;;;;;17.74;41.68;97367.00;4991350;28;20310;-79
2022/03/03 11:26:21;;;;;;;17.50;12.47;;;;;;;18.09;41.50;97421.88;5017528;28;20240;-79
2022/03/03 11:29:11;;;;;;;15.30;13.17;;;;;;;17.41;41.80;97302.06;5023756;28;20292;-79
2022/03/03 11:31:39;;;;;;;16.03;12.83;;;;;;;17.79;41.88;97362.13;5044624;28;20240;-79
2022/03/03 11:34:26;;;;;;;15.70;12.93;;;;;;;18.17;41.87;97428.13;5004656;28;20304;-79
2022/03/03 11:37:21;;;;;;;15.33;12.50;;;;;;;18.16;41.55;97419.66;5027954;28;20287;-79
2022/03/03 11:39:50;;;;;;;17.33;12.67;;;;;;;18.16;41.96;97412.00;5025204;28;20381;-79
2022/03/03 11:42:17;;;;;;;17.70;13.07;;;;;;;18.17;41.36;97410.31;5021936;28;20794;-86
2022/03/03 11:44:44;;;;;;;16.40;12.77;;;;;;;15.41;41.43;96922.25;5030594;28;20225;-86
2022/03/03 11:47:17;;;;;;;16.53;12.90;;;;;;;15.92;41.58;97010.59;5017468;28;20198;-86
2022/03/03 11:50:02;;;;;;;14.57;12.00;;;;;;;18.20;42.04;97407.91;5028476;28;20292;-87
2022/03/03 11:52:29;;;;;;;18.50;13.73;;;;;;;17.85;42.51;97344.56;5017670;28;20304;-88
2022/03/03 11:55:00;;;;;;;14.93;12.80;;;;;;;11.19;42.51;96264.88;5024560;28;20231;-88
2022/03/03 11:57:28;;;;;;;17.80;14.10;;;;;;;13.90;42.64;96734.97;5029040;28;20601;-88
2022/03/03 12:00:04;;;;;;;16.57;14.50;;;;;;;14.66;42.47;96793.25;4980055;28;20205;-89
2022/03/03 12:02:32;;;;;;;19.53;15.30;;;;;;;14.31;42.38;96813.53;5006432;28;20288;-87
2022/03/03 12:05:39;;;;;;;17.93;14.43;;;;;;;18.21;42.44;97399.47;5034376;28;20229;-88
2022/03/03 12:08:16;;;;;;;20.37;14.67;;;;;;;18.22;42.62;97403.75;5022919;28;20201;-88
2022/03/03 12:11:01;;;;;;;21.80;15.63;;;;;;;18.22;42.40;97406.28;5023023;28;20234;-89
2022/03/03 12:13:29;;;;;;;23.30;16.10;;;;;;;14.61;41.89;96818.34;5010983;28;20202;-88
2022/03/03 12:16:14;;;;;;;20.83;16.57;;;;;;;18.24;42.52;97395.38;5018755;28;20753;-80
2022/03/03 12:18:41;;;;;;;22.10;16.80;;;;;;;18.24;42.22;97394.53;5018405;28;20212;-81
2022/03/03 12:21:28;;;;;;;20.73;17.03;;;;;;;18.25;42.61;97388.63;4992276;28;20206;-84
2022/03/03 12:24:28;;;;;;;19.60;16.43;;;;;;;17.94;42.54;97330.56;5016538;28;20347;-88
2022/03/03 12:26:54;;;;;;;21.60;16.57;;;;;;;18.27;42.67;97386.13;5014030;28;20267;-89
2022/03/03 12:29:30;;;;;;;23.80;17.07;;;;;;;16.42;42.56;97054.19;5017935;28;20206;-89
2022/03/03 12:31:57;;;;;;;20.37;16.23;;;;;;;17.00;42.75;97164.91;5020024;28;20237;-88
2022/03/03 12:34:28;;;;;;;22.23;17.07;;;;;;;17.32;42.67;97196.69;5010857;28;20217;-88
2022/03/03 12:36:58;;;;;;;20.07;16.33;;;;;;;16.47;43.00;97052.75;5027358;28;20225;-88
2022/03/03 12:39:25;;;;;;;23.27;17.17;;;;;;;18.32;42.46;97366.84;4993889;28;20230;-88
2022/03/03 12:41:53;;;;;;;21.30;17.40;;;;;;;17.30;42.62;97185.59;5011981;28;20206;-88
2022/03/03 12:44:20;;;;;;;27.17;17.50;;;;;;;18.33;42.85;97356.72;5019173;28;20484;-87
2022/03/03 12:46:47;;;;;;;22.07;16.03;;;;;;;17.98;42.58;97296.84;5025630;28;20308;-88
2022/03/03 12:49:14;;;;;;;25.37;17.37;;;;;;;16.80;43.00;97144.56;5021619;28;20619;-82
2022/03/03 12:51:44;;;;;;;20.30;15.57;;;;;;;17.34;43.09;97183.25;5039559;28;20674;-81
2022/03/03 12:54:11;;;;;;;21.27;15.57;;;;;;;18.38;43.06;97355.22;5006614;28;20307;-79
2022/03/03 12:56:37;;;;;;;21.13;15.97;;;;;;;18.39;43.18;97356.13;5022160;28;20728;-79
2022/03/03 12:59:07;;;;;;;20.97;15.63;;;;;;;18.40;43.40;97347.66;5011143;28;20285;-80
2022/03/03 13:01:37;;;;;;;20.87;15.20;;;;;;;14.80;42.98;96764.34;5004506;28;20202;-80
2022/03/03 13:04:06;;;;;;;20.03;14.80;;;;;;;18.42;43.24;97357.13;4998509;28;20302;-81
2022/03/03 13:06:33;;;;;;;19.37;15.30;;;;;;;16.57;43.10;97015.91;4999001;28;20197;-81
2022/03/03 13:09:04;;;;;;;19.97;14.47;;;;;;;15.04;43.61;96755.28;4998106;28;20205;-81
2022/03/03 13:11:31;;;;;;;21.77;15.07;;;;;;;18.43;43.41;97327.44;5005852;28;20212;-79
2022/03/03 13:14:03;;;;;;;21.47;14.53;;;;;;;18.43;43.28;97323.22;5013029;28;20253;-79
2022/03/03 13:16:39;;;;;;;18.23;14.10;;;;;;;15.88;41.38;96889.69;5018083;28;20229;-87
2022/03/03 13:19:06;;;;;;;21.47;14.97;;;;;;;18.43;41.02;97319.78;4985437;28;20198;-85